Time;durP1;ratioP1;P1;durP2;ratioP2;P2;SDS_P1;SDS_P2;PMS_P1;PMS_P2;Temp;Humidity;BMP_temperature;BMP_pressure;BME280_temperature;BME280_humidity;BME280_pressure;Samples;Min_cycle;Max_cycle;Signal;HPM_P1;HPM_P2
2022/09/20 00:00:33;;;;;;;3.28;0.50;;;13.50;94.50;;;;;;5047058;28;20028;-59
2022/09/20 00:02:59;;;;;;;2.60;0.55;;;13.50;94.60;;;;;;5052754;28;20472;-58
2022/09/20 00:05:24;;;;;;;1.00;0.40;;;13.50;94.70;;;;;;5047042;28;20053;-58
2022/09/20 00:07:50;;;;;;;3.33;0.40;;;13.50;94.70;;;;;;5048176;28;20017;-58
2022/09/20 00:10:16;;;;;;;2.45;0.60;;;13.50;94.80;;;;;;5047148;28;20481;-58
2022/09/20 00:12:41;;;;;;;3.08;0.43;;;13.50;94.80;;;;;;5049707;28;20060;-58
2022/09/20 00:15:07;;;;;;;3.95;0.82;;;13.50;94.80;;;;;;5047025;28;20389;-58
2022/09/20 00:17:33;;;;;;;4.63;0.70;;;13.50;94.90;;;;;;5048243;28;20388;-59
2022/09/20 00:19:58;;;;;;;3.05;0.50;;;13.50;94.90;;;;;;5045430;28;20029;-58
2022/09/20 00:22:24;;;;;;;3.15;0.68;;;13.50;94.90;;;;;;5046235;28;20075;-58
2022/09/20 00:24:49;;;;;;;3.53;0.57;;;13.50;94.90;;;;;;5047390;28;20400;-58
2022/09/20 00:27:15;;;;;;;2.63;0.55;;;13.40;95.00;;;;;;5046476;28;20033;-58
2022/09/20 00:29:41;;;;;;;3.72;0.65;;;13.40;95.00;;;;;;5043927;28;20025;-57
2022/09/20 00:32:06;;;;;;;3.03;0.88;;;13.40;95.10;;;;;;5047571;28;20100;-58
2022/09/20 00:37:19;;;;;;;2.13;0.57;;;13.40;95.20;;;;;;5038307;28;20571;-59
2022/09/20 00:39:44;;;;;;;4.68;0.70;;;13.30;95.20;;;;;;5046805;28;20033;-58
2022/09/20 00:42:13;;;;;;;3.42;0.47;;;13.30;95.30;;;;;;5046114;28;20061;-58
2022/09/20 00:44:42;;;;;;;1.58;0.30;;;13.30;95.30;;;;;;5049269;28;20024;-57
2022/09/20 00:47:30;;;;;;;2.83;0.45;;;13.30;95.30;;;;;;5044434;28;20025;-58
2022/09/20 00:50:06;;;;;;;1.88;0.50;;;13.30;95.30;;;;;;5042829;28;20546;-58
2022/09/20 00:52:32;;;;;;;3.15;0.60;;;13.30;95.40;;;;;;5042007;28;20033;-58
2022/09/20 00:54:59;;;;;;;3.97;0.50;;;13.20;95.40;;;;;;5042150;28;20041;-58
2022/09/20 00:57:25;;;;;;;2.50;0.50;;;13.20;95.30;;;;;;5042037;28;20028;-57
2022/09/20 00:59:52;;;;;;;2.55;0.82;;;13.20;95.30;;;;;;5045891;28;20021;-58
2022/09/20 01:02:24;;;;;;;1.98;0.50;;;13.20;95.40;;;;;;5064012;28;20048;-57
2022/09/20 01:04:50;;;;;;;3.35;0.50;;;13.20;95.40;;;;;;5038520;28;20112;-58
2022/09/20 01:07:21;;;;;;;2.75;0.40;;;13.20;95.40;;;;;;5046022;28;20626;-57
2022/09/20 01:09:47;;;;;;;3.95;0.57;;;13.20;95.50;;;;;;5046349;28;20025;-58
2022/09/20 01:12:19;;;;;;;2.38;0.50;;;13.10;95.50;;;;;;5054931;28;20025;-58
2022/09/20 01:14:47;;;;;;;3.92;0.85;;;13.10;95.70;;;;;;5053118;28;20430;-58
2022/09/20 01:17:13;;;;;;;4.13;0.70;;;13.00;96.00;;;;;;5043475;28;20017;-58
2022/09/20 01:20:05;;;;;;;3.33;0.63;;;13.00;95.80;;;;;;5049715;28;20021;-58
2022/09/20 01:22:40;;;;;;;2.72;0.77;;;13.00;95.90;;;;;;5042282;28;20021;-58
2022/09/20 01:25:33;;;;;;;4.70;0.80;;;13.00;96.00;;;;;;5043801;28;20504;-58
2022/09/20 01:27:58;;;;;;;1.52;0.70;;;13.00;96.00;;;;;;5042095;28;20443;-58
2022/09/20 01:30:30;;;;;;;3.20;0.73;;;13.00;96.10;;;;;;5047057;28;20359;-58
2022/09/20 01:33:30;;;;;;;1.98;0.60;;;12.90;96.10;;;;;;5039626;28;20029;-58
2022/09/20 01:35:59;;;;;;;4.10;1.05;;;13.00;96.10;;;;;;5041290;28;20028;-58
2022/09/20 01:38:48;;;;;;;2.65;0.90;;;12.90;96.20;;;;;;5048445;28;20068;-58
2022/09/20 01:41:27;;;;;;;2.90;0.70;;;12.90;96.20;;;;;;5046800;28;20045;-57
2022/09/20 01:44:14;;;;;;;2.50;0.90;;;12.90;96.30;;;;;;5043023;28;20017;-58
2022/09/20 01:46:42;;;;;;;3.85;0.68;;;12.80;96.60;;;;;;5046849;28;20032;-57
2022/09/20 01:49:39;;;;;;;2.75;1.10;;;12.80;96.50;;;;;;5050171;28;20024;-58
2022/09/20 01:52:16;;;;;;;3.42;0.77;;;12.80;96.50;;;;;;5037960;28;20018;-58
2022/09/20 01:55:18;;;;;;;2.72;0.65;;;12.80;96.50;;;;;;5051037;28;20572;-58
2022/09/20 01:57:52;;;;;;;4.20;1.10;;;12.80;96.50;;;;;;5046458;28;20024;-58
2022/09/20 02:00:29;;;;;;;1.90;0.65;;;12.80;96.60;;;;;;5051042;28;20481;-58
2022/09/20 02:03:22;;;;;;;3.28;0.70;;;12.80;96.70;;;;;;5045081;28;20059;-57
2022/09/20 02:06:14;;;;;;;3.75;0.77;;;12.70;96.70;;;;;;5065325;28;20400;-58
2022/09/20 02:09:04;;;;;;;2.88;0.75;;;12.70;96.70;;;;;;5045296;28;20079;-58
2022/09/20 02:11:48;;;;;;;3.42;0.68;;;12.70;96.80;;;;;;5061691;28;20024;-58
2022/09/20 02:14:27;;;;;;;2.17;1.00;;;12.70;96.90;;;;;;5065690;28;20025;-58
2022/09/20 02:16:56;;;;;;;1.33;0.77;;;12.60;97.00;;;;;;5048466;28;20029;-58
2022/09/20 02:19:24;;;;;;;2.63;0.80;;;12.60;97.00;;;;;;5049667;28;20064;-58
2022/09/20 02:22:13;;;;;;;1.75;0.70;;;12.60;97.10;;;;;;5048593;28;20111;-58
2022/09/20 02:25:03;;;;;;;1.80;0.70;;;12.70;97.20;;;;;;5049103;28;20505;-57
2022/09/20 02:27:39;;;;;;;5.20;1.23;;;12.60;97.20;;;;;;5048272;28;20443;-57
2022/09/20 02:30:13;;;;;;;2.55;0.88;;;12.60;97.30;;;;;;5048851;28;20053;-57
2022/09/20 02:33:01;;;;;;;6.40;1.10;;;12.60;97.30;;;;;;5056564;28;20020;-57
2022/09/20 02:36:04;;;;;;;1.45;0.80;;;12.60;97.30;;;;;;5047725;28;20017;-58
2022/09/20 02:38:53;;;;;;;3.22;0.80;;;12.60;97.40;;;;;;5025498;28;20130;-57
2022/09/20 02:41:32;;;;;;;1.95;0.57;;;12.60;97.50;;;;;;5047178;28;20077;-58
2022/09/20 02:44:06;;;;;;;2.55;1.67;;;12.60;97.60;;;;;;5045495;28;20032;-57
2022/09/20 02:46:34;;;;;;;3.38;1.05;;;12.50;97.60;;;;;;5045980;28;20009;-58
2022/09/20 02:49:04;;;;;;;2.05;1.02;;;12.50;97.70;;;;;;5049852;28;20025;-57
2022/09/20 02:51:38;;;;;;;3.33;0.95;;;12.50;97.70;;;;;;5050321;28;20045;-58
2022/09/20 02:54:35;;;;;;;2.33;0.80;;;12.60;97.80;;;;;;5053397;28;20392;-57
2022/09/20 02:57:21;;;;;;;2.03;0.80;;;12.50;97.80;;;;;;5050045;28;20033;-58
2022/09/20 03:00:00;;;;;;;2.10;0.80;;;12.50;97.80;;;;;;5044865;28;20514;-57
2022/09/20 03:02:38;;;;;;;5.32;1.10;;;12.50;98.00;;;;;;5041353;28;20021;-58
2022/09/20 03:05:28;;;;;;;3.30;1.00;;;12.50;98.00;;;;;;5045999;28;20051;-58
2022/09/20 03:08:33;;;;;;;3.55;1.00;;;12.50;98.00;;;;;;5042683;28;20024;-57
2022/09/20 03:11:12;;;;;;;3.35;0.90;;;12.40;98.10;;;;;;5030759;28;20041;-57
2022/09/20 03:14:02;;;;;;;3.10;0.73;;;12.40;98.20;;;;;;5056720;28;20044;-57
2022/09/20 03:17:01;;;;;;;2.92;0.95;;;12.40;98.30;;;;;;5060753;28;20033;-58
2022/09/20 03:19:57;;;;;;;2.92;1.45;;;12.40;98.30;;;;;;5047147;28;20025;-58
2022/09/20 03:22:47;;;;;;;2.97;0.80;;;12.40;98.40;;;;;;5041296;28;20559;-57
2022/09/20 03:25:29;;;;;;;2.28;0.82;;;12.40;98.40;;;;;;5046701;28;20033;-58
2022/09/20 03:28:29;;;;;;;2.35;0.90;;;12.40;98.50;;;;;;5039483;28;20067;-57
2022/09/20 03:31:14;;;;;;;4.97;0.80;;;12.40;98.40;;;;;;5037933;28;20047;-58
2022/09/20 03:34:04;;;;;;;4.88;1.58;;;12.40;98.50;;;;;;5046115;28;20017;-58
2022/09/20 03:36:38;;;;;;;3.05;1.08;;;12.40;98.50;;;;;;5042871;28;20430;-58
2022/09/20 03:39:23;;;;;;;1.38;1.05;;;12.40;98.60;;;;;;5049300;28;20029;-58
2022/09/20 03:42:07;;;;;;;1.73;0.80;;;12.40;98.60;;;;;;5008123;28;1059289;-57
2022/09/20 03:45:03;;;;;;;3.30;0.73;;;12.40;98.70;;;;;;5041936;28;20028;-58
2022/09/20 03:47:37;;;;;;;2.03;0.90;;;12.40;98.70;;;;;;5046698;28;20035;-57
2022/09/20 03:50:27;;;;;;;2.70;0.80;;;12.30;98.70;;;;;;5046070;28;20026;-57
2022/09/20 03:53:19;;;;;;;1.85;0.60;;;12.30;98.70;;;;;;5045981;28;20026;-58
2022/09/20 03:56:03;;;;;;;3.88;1.00;;;12.40;98.70;;;;;;5055999;28;20021;-58
2022/09/20 03:58:44;;;;;;;3.95;0.90;;;12.30;98.70;;;;;;5042336;28;20036;-58
2022/09/20 04:01:19;;;;;;;1.88;0.80;;;12.30;98.80;;;;;;5045236;28;20020;-58
2022/09/20 04:03:54;;;;;;;1.80;0.80;;;12.30;98.80;;;;;;5064341;28;20108;-57
2022/09/20 04:06:59;;;;;;;3.05;1.27;;;12.30;98.90;;;;;;5043839;28;20067;-59
2022/09/20 04:09:32;;;;;;;3.10;0.68;;;12.30;98.90;;;;;;5026441;28;20044;-58
2022/09/20 04:12:19;;;;;;;3.38;0.90;;;12.20;99.00;;;;;;5046301;28;20473;-57
2022/09/20 04:14:55;;;;;;;1.70;1.02;;;12.20;99.00;;;;;;5043668;28;20571;-58
2022/09/20 04:17:48;;;;;;;3.83;0.70;;;12.20;99.10;;;;;;5047718;28;20510;-58
2022/09/20 04:20:43;;;;;;;3.78;0.70;;;12.20;99.00;;;;;;5045825;28;20041;-58
2022/09/20 04:23:42;;;;;;;2.05;0.73;;;12.10;99.10;;;;;;5037258;28;20124;-58
2022/09/20 04:26:08;;;;;;;1.20;0.60;;;12.10;99.10;;;;;;5045698;28;20021;-58
2022/09/20 04:28:41;;;;;;;2.75;0.70;;;12.10;99.30;;;;;;5046342;28;20106;-58
2022/09/20 04:31:34;;;;;;;1.52;0.70;;;12.10;99.40;;;;;;5043849;28;20094;-58
2022/09/20 04:34:03;;;;;;;2.03;0.73;;;12.10;99.30;;;;;;5043175;28;20027;-58
2022/09/20 04:36:36;;;;;;;1.92;0.80;;;12.00;99.40;;;;;;5046938;28;20020;-58
2022/09/20 04:39:36;;;;;;;2.17;0.63;;;12.10;99.50;;;;;;5044828;28;20029;-58
2022/09/20 04:42:29;;;;;;;2.83;0.80;;;12.00;99.40;;;;;;5042780;28;20048;-58
2022/09/20 04:45:38;;;;;;;1.73;0.70;;;12.00;99.60;;;;;;5047796;28;20042;-58
2022/09/20 04:48:34;;;;;;;1.50;0.80;;;12.00;99.50;;;;;;4968017;28;20034;-59
2022/09/20 04:51:24;;;;;;;1.45;0.63;;;12.00;99.60;;;;;;5063628;28;20442;-58
2022/09/20 04:54:24;;;;;;;1.80;0.70;;;11.90;99.70;;;;;;5046713;28;20380;-58
2022/09/20 04:57:18;;;;;;;1.55;0.60;;;11.90;99.70;;;;;;5051931;28;20315;-58
2022/09/20 05:00:10;;;;;;;1.45;0.50;;;11.80;99.90;;;;;;5052450;28;20128;-58
2022/09/20 05:02:41;;;;;;;1.25;0.60;;;11.80;99.90;;;;;;5041786;28;20039;-58
2022/09/20 05:05:15;;;;;;;2.50;1.05;;;11.80;99.90;;;;;;5051555;28;20029;-58
2022/09/20 05:07:55;;;;;;;1.38;0.77;;;11.80;99.90;;;;;;5052246;28;20044;-57
2022/09/20 05:10:41;;;;;;;;;;;11.80;99.90;;;;;;5052396;28;20029;-58
2022/09/20 05:13:09;;;;;;;2.38;0.57;;;11.70;99.90;;;;;;5052528;28;19915;-58
2022/09/20 05:15:40;;;;;;;2.28;0.50;;;11.60;99.90;;;;;;5051730;28;20039;-58
2022/09/20 05:18:34;;;;;;;1.35;0.40;;;11.60;99.90;;;;;;5052012;28;20017;-57
2022/09/20 05:21:32;;;;;;;0.98;0.50;;;11.70;99.90;;;;;;5040143;28;20017;-58
2022/09/20 05:24:29;;;;;;;1.08;0.70;;;11.60;99.90;;;;;;5050123;28;20024;-57
2022/09/20 05:27:21;;;;;;;2.78;0.80;;;11.50;99.90;;;;;;5040828;28;20063;-58
2022/09/20 05:29:58;;;;;;;1.15;0.80;;;11.50;99.90;;;;;;5050710;28;20354;-58
2022/09/20 05:32:47;;;;;;;2.65;0.80;;;11.50;99.90;;;;;;5051604;28;20032;-58
2022/09/20 05:35:21;;;;;;;2.42;0.68;;;11.50;99.90;;;;;;5035122;28;20083;-58
2022/09/20 05:37:59;;;;;;;1.58;0.70;;;11.50;99.90;;;;;;5049152;28;20074;-57
2022/09/20 05:40:54;;;;;;;3.50;0.70;;;11.50;99.90;;;;;;5050168;28;20044;-57
2022/09/20 05:43:30;;;;;;;1.92;0.73;;;11.50;99.90;;;;;;5054285;28;20078;-57
2022/09/20 05:46:38;;;;;;;2.35;0.88;;;11.50;99.90;;;;;;5051313;28;20112;-57
2022/09/20 05:49:09;;;;;;;2.65;0.90;;;11.40;99.90;;;;;;5022886;28;20551;-57
2022/09/20 05:52:02;;;;;;;1.77;0.82;;;11.40;99.90;;;;;;5047614;28;20060;-57
2022/09/20 05:54:54;;;;;;;2.13;0.60;;;11.40;99.90;;;;;;5056053;28;20025;-58
2022/09/20 05:57:43;;;;;;;2.63;0.80;;;11.40;99.90;;;;;;5043521;28;20029;-58
2022/09/20 06:00:21;;;;;;;1.38;0.82;;;11.30;99.90;;;;;;5039217;28;20492;-58
2022/09/20 06:02:59;;;;;;;1.92;0.70;;;11.30;99.90;;;;;;5048723;28;20465;-57
2022/09/20 06:05:46;;;;;;;1.33;0.77;;;11.40;99.90;;;;;;5051899;28;20029;-57
2022/09/20 06:08:20;;;;;;;1.73;1.00;;;11.40;99.90;;;;;;5034257;28;20126;-57
2022/09/20 06:10:59;;;;;;;1.95;0.80;;;11.40;99.90;;;;;;5047148;28;20032;-57
2022/09/20 06:13:43;;;;;;;1.95;0.90;;;11.40;99.90;;;;;;5035139;28;20017;-57
2022/09/20 06:16:30;;;;;;;3.28;0.90;;;11.50;99.90;;;;;;5037194;28;20016;-58
2022/09/20 06:18:58;;;;;;;1.00;0.63;;;11.50;99.90;;;;;;5049385;28;20048;-57
2022/09/20 06:21:45;;;;;;;2.45;0.88;;;11.50;99.90;;;;;;5058046;28;20386;-57
2022/09/20 06:24:51;;;;;;;2.10;0.85;;;11.60;99.90;;;;;;5049818;28;20170;-57
2022/09/20 06:27:23;;;;;;;2.58;0.80;;;11.70;99.90;;;;;;5027040;28;20040;-57
2022/09/20 06:29:55;;;;;;;1.80;0.80;;;11.70;99.90;;;;;;5050659;28;20062;-56
2022/09/20 06:32:21;;;;;;;1.65;0.77;;;11.80;99.90;;;;;;5052255;28;20029;-58
2022/09/20 06:34:47;;;;;;;4.25;1.30;;;11.80;99.90;;;;;;5055241;28;20021;-57
2022/09/20 06:43:13;;;;;;;1.85;1.02;;;12.00;99.90;;;;;;5044457;28;20047;-58
2022/09/20 06:45:41;;;;;;;3.50;1.30;;;12.00;99.90;;;;;;5053378;28;20051;-56
2022/09/20 06:48:12;;;;;;;3.53;1.10;;;12.00;99.90;;;;;;5043239;28;20037;-58
2022/09/20 06:50:38;;;;;;;4.43;1.20;;;12.10;99.90;;;;;;5053193;28;20025;-58
2022/09/20 06:53:05;;;;;;;2.90;1.20;;;12.10;99.90;;;;;;5053805;28;20512;-58
2022/09/20 06:55:36;;;;;;;4.25;1.42;;;12.10;99.90;;;;;;5053583;28;20094;-58
2022/09/20 06:58:02;;;;;;;3.40;1.17;;;12.10;99.90;;;;;;5040140;28;20029;-58
2022/09/20 07:00:29;;;;;;;4.85;1.05;;;12.10;99.90;;;;;;5052050;28;20036;-58
2022/09/20 07:02:55;;;;;;;3.45;1.15;;;12.20;99.90;;;;;;5053167;28;20013;-58
2022/09/20 07:05:21;;;;;;;4.65;1.48;;;12.20;99.90;;;;;;5053195;28;20024;-57
2022/09/20 07:07:47;;;;;;;2.28;1.27;;;12.20;99.90;;;;;;5052763;28;20029;-58
2022/09/20 07:10:14;;;;;;;2.95;1.30;;;12.30;99.90;;;;;;5053965;28;20032;-58
2022/09/20 07:12:40;;;;;;;2.30;1.20;;;12.30;99.90;;;;;;5051464;28;20025;-58
2022/09/20 07:15:06;;;;;;;5.72;1.83;;;12.30;99.90;;;;;;5053455;28;20526;-58
2022/09/20 07:17:32;;;;;;;3.33;1.50;;;12.40;99.90;;;;;;5051683;28;20029;-58
2022/09/20 07:19:58;;;;;;;5.88;1.52;;;12.40;99.90;;;;;;5052839;28;20503;-58
2022/09/20 07:22:25;;;;;;;4.13;1.55;;;12.50;99.90;;;;;;5050256;28;20680;-57
2022/09/20 07:24:50;;;;;;;4.60;1.60;;;12.50;99.90;;;;;;5052877;28;20035;-58
2022/09/20 07:27:16;;;;;;;3.95;1.90;;;12.60;99.90;;;;;;5051738;28;20021;-58
2022/09/20 07:29:41;;;;;;;2.92;1.67;;;12.80;99.90;;;;;;5052685;28;20025;-58
2022/09/20 07:32:07;;;;;;;4.03;1.63;;;12.90;99.90;;;;;;5049051;28;20051;-58
2022/09/20 07:34:32;;;;;;;5.10;1.75;;;13.00;99.90;;;;;;5052824;28;20021;-58
2022/09/20 07:37:01;;;;;;;4.03;2.30;;;13.00;99.90;;;;;;5051270;28;20029;-58
2022/09/20 07:39:26;;;;;;;6.47;2.05;;;13.10;99.90;;;;;;5049844;28;20021;-57
2022/09/20 07:41:52;;;;;;;7.40;2.47;;;13.20;99.90;;;;;;5052626;28;20435;-58
2022/09/20 07:44:24;;;;;;;7.55;1.70;;;13.30;99.90;;;;;;5051367;28;20032;-58
2022/09/20 07:46:55;;;;;;;5.78;1.80;;;13.40;99.90;;;;;;5052620;28;20048;-58
2022/09/20 07:49:21;;;;;;;4.25;1.50;;;13.50;99.90;;;;;;5049392;28;20473;-58
2022/09/20 07:51:48;;;;;;;3.20;1.48;;;13.60;99.90;;;;;;5048280;28;20021;-58
2022/09/20 07:54:15;;;;;;;4.03;1.33;;;13.70;99.90;;;;;;5051286;28;20055;-58
2022/09/20 07:56:41;;;;;;;3.38;1.40;;;13.80;99.90;;;;;;5048247;28;20013;-57
2022/09/20 07:59:08;;;;;;;3.53;1.30;;;13.90;99.90;;;;;;5051118;28;20027;-58
2022/09/20 08:01:34;;;;;;;4.60;1.33;;;14.00;99.90;;;;;;5050393;28;20473;-58
2022/09/20 08:04:00;;;;;;;2.28;1.23;;;14.10;99.90;;;;;;5051427;28;20082;-57
2022/09/20 08:06:26;;;;;;;3.55;1.60;;;14.20;99.90;;;;;;5052207;28;20017;-58
2022/09/20 08:08:52;;;;;;;4.22;1.63;;;14.30;99.90;;;;;;5053429;28;20039;-58
2022/09/20 08:11:24;;;;;;;2.35;1.58;;;14.40;99.70;;;;;;5040438;28;20481;-58
2022/09/20 08:13:52;;;;;;;3.75;1.13;;;14.50;99.50;;;;;;5044600;28;20112;-58
2022/09/20 08:16:19;;;;;;;2.67;1.40;;;14.60;99.40;;;;;;5047678;28;20033;-57
2022/09/20 08:18:49;;;;;;;3.20;1.23;;;14.60;99.20;;;;;;5049739;28;20095;-58
2022/09/20 08:21:15;;;;;;;3.75;1.35;;;14.70;99.10;;;;;;5041833;28;20017;-58
2022/09/20 08:23:43;;;;;;;3.60;1.20;;;14.70;98.90;;;;;;5052791;28;20021;-58
2022/09/20 08:26:11;;;;;;;2.92;1.20;;;14.80;98.80;;;;;;5053210;28;20024;-58
2022/09/20 08:28:38;;;;;;;5.22;1.13;;;14.80;98.60;;;;;;5050939;28;20025;-58
2022/09/20 08:31:09;;;;;;;2.80;0.98;;;14.70;98.60;;;;;;5051810;28;20112;-58
2022/09/20 08:33:36;;;;;;;5.40;0.90;;;14.80;98.50;;;;;;5051687;28;20020;-58
2022/09/20 08:36:03;;;;;;;3.05;0.93;;;15.00;98.40;;;;;;5051571;28;20071;-58
2022/09/20 08:38:30;;;;;;;3.90;0.93;;;15.10;98.20;;;;;;5051674;28;20017;-58
2022/09/20 08:41:10;;;;;;;2.42;0.68;;;15.20;98.00;;;;;;5050204;28;20124;-58
2022/09/20 08:43:44;;;;;;;1.70;0.65;;;15.20;97.80;;;;;;5050334;28;20408;-58
2022/09/20 08:46:15;;;;;;;2.03;0.70;;;15.30;97.60;;;;;;5047867;28;20028;-58
2022/09/20 08:48:42;;;;;;;4.60;0.68;;;15.30;97.50;;;;;;5051377;28;20013;-58
2022/09/20 08:51:14;;;;;;;3.13;0.90;;;15.30;97.20;;;;;;5051382;28;20021;-58
2022/09/20 08:53:51;;;;;;;3.22;0.60;;;15.40;97.00;;;;;;5050125;28;20624;-58
2022/09/20 08:56:17;;;;;;;2.35;0.50;;;15.40;96.80;;;;;;5051153;28;20079;-58
2022/09/20 08:58:44;;;;;;;1.55;0.47;;;15.40;96.60;;;;;;5050117;28;20032;-58
2022/09/20 09:01:21;;;;;;;4.28;0.70;;;15.40;96.20;;;;;;5050122;28;20382;-58
2022/09/20 09:03:50;;;;;;;1.75;0.40;;;15.50;95.90;;;;;;5049480;28;20465;-58
2022/09/20 09:06:21;;;;;;;3.28;0.68;;;15.50;95.90;;;;;;5051046;28;20029;-58
2022/09/20 09:08:52;;;;;;;2.72;0.50;;;15.40;95.30;;;;;;5050798;28;20017;-58
2022/09/20 09:11:19;;;;;;;2.17;0.40;;;15.40;95.40;;;;;;5047594;28;20500;-58
2022/09/20 09:13:52;;;;;;;0.80;0.30;;;15.40;95.30;;;;;;5051240;28;20142;-58
2022/09/20 09:16:19;;;;;;;0.98;0.30;;;15.40;95.20;;;;;;5048708;28;20017;-58
2022/09/20 09:18:48;;;;;;;2.53;0.35;;;15.40;95.00;;;;;;5047071;28;20397;-58
2022/09/20 09:21:25;;;;;;;1.95;0.30;;;15.40;94.90;;;;;;5052465;28;20020;-58
2022/09/20 09:24:02;;;;;;;2.80;0.40;;;15.50;94.80;;;;;;5046985;28;20021;-57
2022/09/20 09:26:36;;;;;;;1.40;0.40;;;15.50;94.50;;;;;;5047130;28;20583;-58
2022/09/20 09:29:22;;;;;;;0.93;0.20;;;15.50;94.40;;;;;;5048954;28;20083;-58
2022/09/20 09:31:51;;;;;;;3.42;0.40;;;15.60;94.20;;;;;;5051056;28;20017;-58
2022/09/20 09:34:37;;;;;;;0.97;0.30;;;15.60;94.10;;;;;;5047535;28;20017;-58
2022/09/20 09:37:03;;;;;;;1.77;0.20;;;15.70;93.80;;;;;;5042811;28;20484;-58
2022/09/20 09:39:32;;;;;;;2.58;0.45;;;15.60;93.80;;;;;;5043918;28;20527;-58
2022/09/20 09:42:01;;;;;;;2.72;0.40;;;15.60;93.70;;;;;;5050919;28;20071;-58
2022/09/20 09:44:34;;;;;;;4.28;0.73;;;15.40;93.80;;;;;;5052076;28;20218;-58
2022/09/20 09:47:00;;;;;;;3.25;0.50;;;15.40;94.10;;;;;;5048975;28;20104;-58
2022/09/20 09:49:34;;;;;;;2.55;0.60;;;15.30;94.20;;;;;;5048475;28;20025;-58
2022/09/20 09:52:05;;;;;;;4.30;0.50;;;15.40;94.40;;;;;;5031738;28;20060;-58
2022/09/20 09:54:37;;;;;;;2.42;0.50;;;15.40;94.50;;;;;;5041888;28;20032;-58
2022/09/20 09:57:24;;;;;;;0.70;0.30;;;15.40;94.50;;;;;;5028216;28;20115;-58
2022/09/20 10:00:06;;;;;;;1.52;0.40;;;15.50;94.50;;;;;;5045203;28;20033;-58
2022/09/20 10:02:59;;;;;;;1.20;0.20;;;15.70;94.50;;;;;;5035472;28;20032;-58
2022/09/20 10:05:56;;;;;;;1.40;0.30;;;15.70;94.40;;;;;;5061076;28;20024;-58
2022/09/20 10:08:50;;;;;;;0.93;0.20;;;15.80;94.20;;;;;;5060495;28;20024;-58
2022/09/20 10:11:36;;;;;;;1.15;0.20;;;15.90;94.20;;;;;;5047052;28;20041;-58
2022/09/20 10:14:17;;;;;;;0.50;0.20;;;16.00;94.10;;;;;;5052706;28;20048;-58
2022/09/20 10:16:54;;;;;;;1.80;0.20;;;16.20;93.90;;;;;;5063544;28;20441;-58
2022/09/20 10:19:30;;;;;;;1.10;0.25;;;16.50;93.60;;;;;;5049442;28;20095;-58
2022/09/20 10:22:03;;;;;;;1.80;0.30;;;16.70;93.20;;;;;;5045487;28;20035;-58
2022/09/20 10:24:47;;;;;;;1.92;0.30;;;17.10;92.80;;;;;;5051819;28;20021;-59
2022/09/20 10:27:19;;;;;;;0.52;0.30;;;17.40;92.10;;;;;;5054735;28;20170;-58
2022/09/20 10:29:48;;;;;;;1.67;0.30;;;17.60;91.60;;;;;;5049666;28;20021;-58
2022/09/20 10:32:31;;;;;;;1.48;0.30;;;17.90;91.30;;;;;;5049311;28;20032;-58
2022/09/20 10:35:34;;;;;;;1.88;0.30;;;18.20;91.00;;;;;;5032566;28;20086;-58
2022/09/20 10:38:13;;;;;;;1.30;0.28;;;18.80;90.50;;;;;;5056889;28;20426;-58
2022/09/20 10:44:06;;;;;;;2.20;0.30;;;19.30;88.10;;;;;;5047470;28;20032;-58
2022/09/20 10:46:55;;;;;;;1.95;0.40;;;19.30;87.90;;;;;;5047797;28;20031;-59
2022/09/20 10:49:36;;;;;;;1.40;0.30;;;19.40;86.40;;;;;;5049582;28;20029;-59
2022/09/20 10:52:23;;;;;;;2.17;0.38;;;19.30;85.30;;;;;;5045602;28;20275;-59
2022/09/20 10:55:19;;;;;;;2.22;0.32;;;19.20;85.40;;;;;;5067215;28;20025;-58
2022/09/20 10:58:05;;;;;;;1.65;0.30;;;19.10;84.60;;;;;;5051157;28;20017;-58
2022/09/20 11:00:42;;;;;;;1.55;0.20;;;19.10;84.80;;;;;;5046986;28;20028;-58
2022/09/20 11:03:33;;;;;;;1.25;0.40;;;19.10;84.70;;;;;;5048485;28;20028;-58
2022/09/20 11:06:17;;;;;;;2.45;0.30;;;19.30;84.60;;;;;;5049285;28;20487;-58
2022/09/20 11:08:48;;;;;;;2.00;0.40;;;19.50;83.20;;;;;;5049801;28;20087;-59
2022/09/20 11:11:29;;;;;;;2.40;0.30;;;19.60;80.70;;;;;;5046140;28;20028;-58
2022/09/20 11:14:06;;;;;;;2.30;0.30;;;19.50;80.10;;;;;;5051982;28;20025;-58
2022/09/20 11:16:47;;;;;;;2.90;0.40;;;19.40;79.90;;;;;;5046506;28;20104;-58
2022/09/20 11:19:22;;;;;;;2.33;0.32;;;19.30;79.50;;;;;;5041448;28;20025;-58
2022/09/20 11:22:14;;;;;;;1.25;0.30;;;19.20;79.40;;;;;;5049549;28;20492;-58
2022/09/20 11:24:57;;;;;;;1.70;0.30;;;19.20;79.50;;;;;;5051590;28;20051;-58
2022/09/20 11:27:30;;;;;;;2.83;0.30;;;19.00;79.50;;;;;;5064503;28;20111;-58
2022/09/20 11:30:16;;;;;;;2.95;0.40;;;18.90;78.40;;;;;;5044736;28;20119;-58
2022/09/20 11:33:11;;;;;;;2.05;0.40;;;18.80;77.80;;;;;;5049695;28;20025;-58
2022/09/20 11:35:55;;;;;;;2.72;0.30;;;18.70;77.40;;;;;;5062358;28;20032;-58
2022/09/20 11:38:24;;;;;;;3.55;0.32;;;18.60;77.80;;;;;;5054828;28;20104;-59
2022/09/20 11:41:13;;;;;;;1.95;0.35;;;18.50;78.00;;;;;;5049567;28;20056;-58
2022/09/20 11:43:43;;;;;;;1.88;0.30;;;18.50;78.30;;;;;;5036725;28;20766;-58
2022/09/20 11:46:12;;;;;;;2.55;0.40;;;18.40;78.70;;;;;;5049260;28;20111;-58
2022/09/20 11:49:16;;;;;;;3.13;0.30;;;18.50;78.70;;;;;;5039263;28;20107;-58
2022/09/20 11:52:00;;;;;;;2.13;0.30;;;18.50;77.90;;;;;;5017676;28;20079;-58
2022/09/20 11:55:01;;;;;;;0.77;0.20;;;18.70;77.60;;;;;;5048879;28;20114;-58
2022/09/20 11:57:27;;;;;;;2.42;0.40;;;19.50;76.90;;;;;;5047177;28;20024;-58
2022/09/20 12:00:02;;;;;;;2.10;0.38;;;20.50;74.20;;;;;;5049854;28;20029;-58
2022/09/20 12:02:44;;;;;;;1.98;0.30;;;21.20;71.90;;;;;;5049040;28;20116;-59
2022/09/20 12:05:42;;;;;;;0.55;0.20;;;23.00;69.50;;;;;;5050925;28;20492;-58
2022/09/20 12:08:26;;;;;;;2.53;0.35;;;25.40;62.60;;;;;;5018613;28;20041;-59
2022/09/20 12:11:04;;;;;;;0.90;0.20;;;25.60;59.40;;;;;;5049147;28;20404;-59
2022/09/20 12:13:34;;;;;;;1.48;0.40;;;25.20;58.50;;;;;;5045930;28;20112;-59
2022/09/20 12:16:13;;;;;;;1.33;0.35;;;24.70;58.20;;;;;;5046211;28;20025;-59
2022/09/20 12:18:55;;;;;;;4.07;0.40;;;24.30;58.30;;;;;;5041964;28;20485;-59
2022/09/20 12:21:21;;;;;;;4.18;0.30;;;24.00;59.00;;;;;;5037064;28;20189;-59
2022/09/20 12:23:56;;;;;;;1.90;0.40;;;23.40;58.00;;;;;;5048411;28;20111;-58
2022/09/20 12:26:21;;;;;;;0.95;0.30;;;23.10;59.00;;;;;;5048481;28;20055;-58
2022/09/20 12:28:52;;;;;;;2.08;0.40;;;22.80;59.20;;;;;;5050173;28;20024;-59
2022/09/20 12:31:21;;;;;;;2.28;0.40;;;22.60;59.70;;;;;;5035512;28;20396;-58
2022/09/20 12:34:09;;;;;;;2.50;0.38;;;22.50;60.00;;;;;;5056907;28;20167;-58
2022/09/20 12:36:55;;;;;;;3.17;0.30;;;22.50;60.00;;;;;;5030762;28;20029;-59
2022/09/20 12:39:24;;;;;;;1.25;0.30;;;22.20;59.70;;;;;;5028707;28;20033;-58
2022/09/20 12:42:00;;;;;;;1.23;0.30;;;22.10;60.30;;;;;;5057371;28;20067;-58
2022/09/20 12:44:36;;;;;;;2.55;0.30;;;22.30;60.20;;;;;;5036814;28;20040;-58
2022/09/20 12:47:11;;;;;;;2.78;0.30;;;22.50;59.70;;;;;;5035086;28;20436;-59
2022/09/20 12:55:26;;;;;;;1.73;0.35;;;22.70;59.00;;;;;;5044198;28;20028;-59
2022/09/20 12:57:59;;;;;;;1.27;0.28;;;22.70;58.50;;;;;;5046328;28;20056;-58
2022/09/20 13:00:38;;;;;;;1.45;0.32;;;22.60;57.60;;;;;;5047138;28;20016;-58
2022/09/20 13:03:28;;;;;;;1.57;0.30;;;22.60;57.40;;;;;;5047053;28;20495;-58
2022/09/20 13:06:07;;;;;;;3.33;0.40;;;22.60;57.20;;;;;;5064048;28;20036;-58
2022/09/20 13:09:04;;;;;;;2.25;0.30;;;22.50;56.40;;;;;;5053598;28;20021;-58
2022/09/20 13:11:48;;;;;;;2.45;0.30;;;22.60;56.50;;;;;;5041407;28;20037;-58
2022/09/20 13:14:21;;;;;;;2.92;0.40;;;22.70;56.40;;;;;;5048428;28;20025;-58
2022/09/20 13:16:52;;;;;;;1.50;0.40;;;22.60;55.00;;;;;;5042718;28;20021;-58
2022/09/20 13:19:28;;;;;;;2.50;0.40;;;22.60;55.60;;;;;;5038130;28;20025;-58
2022/09/20 13:22:16;;;;;;;1.55;0.30;;;22.80;55.80;;;;;;5058127;28;20028;-58
2022/09/20 13:24:45;;;;;;;0.85;0.30;;;23.30;56.00;;;;;;5040655;28;20536;-59
2022/09/20 13:27:24;;;;;;;1.10;0.30;;;24.60;55.10;;;;;;5038345;28;20025;-59
2022/09/20 13:29:50;;;;;;;;;;;25.80;54.30;;;;;;5047073;28;20035;-58
2022/09/20 13:32:24;;;;;;;2.03;0.43;;;26.70;53.70;;;;;;5045711;28;19913;-58
2022/09/20 13:35:08;;;;;;;2.42;0.40;;;27.60;50.70;;;;;;5036830;28;20029;-59
2022/09/20 13:37:45;;;;;;;2.08;0.38;;;28.00;49.00;;;;;;5044240;28;20036;-58
2022/09/20 13:40:32;;;;;;;2.22;0.40;;;27.90;48.40;;;;;;5047680;28;20040;-58
2022/09/20 13:43:01;;;;;;;1.75;0.40;;;27.40;48.70;;;;;;5041041;28;20029;-59
2022/09/20 13:45:27;;;;;;;2.22;0.30;;;26.80;49.50;;;;;;5051605;28;20451;-59
2022/09/20 13:47:56;;;;;;;1.10;0.40;;;26.40;50.10;;;;;;5052701;28;20025;-58
2022/09/20 13:50:26;;;;;;;;;;;26.00;50.70;;;;;;5049494;28;20103;-58
2022/09/20 13:52:58;;;;;;;2.28;0.38;;;25.60;51.40;;;;;;5051970;28;19915;-58
2022/09/20 13:55:28;;;;;;;2.15;0.70;;;25.50;51.80;;;;;;5050024;28;20025;-59
2022/09/20 13:57:57;;;;;;;1.63;0.45;;;25.50;51.80;;;;;;5051387;28;20029;-58